createdAt,value
2023-03-11T07:10:10.460Z,76.91
2023-03-11T07:11:17.781Z,75.71
2023-03-11T07:12:23.036Z,74.35
2023-03-11T07:13:24.563Z,72.51
2023-03-11T07:14:26.021Z,71.24
2023-03-11T07:15:27.458Z,70.80
2023-03-11T07:16:30.018Z,69.93
2023-03-11T07:17:32.138Z,68.38
2023-03-11T07:18:35.148Z,67.37
2023-03-11T07:19:36.510Z,67.06
2023-03-11T07:20:38.174Z,66.14
2023-03-11T07:21:40.129Z,65.39
2023-03-11T07:22:41.542Z,64.82
2023-03-11T07:23:43.428Z,64.02
2023-03-11T07:24:49.216Z,63.11
2023-03-11T07:25:52.735Z,62.99
2023-03-11T07:26:54.121Z,63.02
2023-03-11T07:27:55.459Z,62.69
2023-03-11T07:28:57.905Z,62.97
2023-03-11T07:30:02.052Z,63.12
2023-03-11T07:31:17.947Z,62.44
2023-03-11T07:32:19.749Z,62.11
2023-03-11T07:33:23.945Z,62.93
2023-03-11T07:34:25.453Z,64.96
2023-03-11T07:35:26.823Z,62.61
2023-03-11T07:36:29.021Z,60.23
2023-03-11T07:37:30.472Z,58.94
2023-03-11T07:38:31.857Z,59.06
2023-03-11T07:39:33.328Z,60.34
2023-03-11T07:40:35.564Z,60.31
2023-03-11T07:41:36.947Z,58.75
2023-03-11T07:42:39.052Z,57.78
2023-03-11T07:43:42.884Z,57.44
2023-03-11T07:44:44.340Z,58.18
2023-03-11T07:45:45.780Z,56.89
2023-03-11T07:46:47.475Z,56.51
2023-03-11T07:47:48.861Z,56.88
2023-03-11T07:48:51.657Z,56.47
2023-03-11T07:49:53.102Z,57.27
2023-03-11T07:51:28.856Z,56.51
2023-03-11T07:52:31.995Z,55.84
2023-03-11T07:53:34.368Z,56.48
2023-03-11T07:54:35.887Z,56.01
2023-03-11T07:55:37.323Z,56.90
2023-03-11T07:56:38.898Z,56.75
2023-03-11T07:57:40.619Z,57.48
2023-03-11T07:58:45.657Z,54.47
2023-03-11T07:59:47.396Z,53.43
2023-03-11T08:00:48.900Z,54.74
2023-03-11T08:01:50.771Z,53.84
2023-03-11T08:02:52.525Z,53.70
2023-03-11T08:03:58.812Z,54.01
2023-03-11T08:05:00.499Z,52.63
2023-03-11T08:06:02.362Z,51.45
2023-03-11T08:07:04.052Z,51.89
2023-03-11T08:08:05.546Z,53.09
2023-03-11T08:09:09.220Z,51.93
2023-03-11T08:10:11.496Z,52.00
2023-03-11T08:11:13.935Z,52.12
2023-03-11T08:12:16.415Z,51.33
2023-03-11T08:13:17.962Z,51.49
2023-03-11T08:14:19.290Z,49.68
2023-03-11T08:15:20.779Z,51.02
2023-03-11T08:16:22.622Z,51.94
2023-03-11T08:17:24.083Z,50.85
2023-03-11T08:18:25.483Z,49.06
2023-03-11T08:19:26.954Z,49.07
2023-03-11T08:20:28.339Z,48.38
2023-03-11T08:21:32.221Z,48.33
2023-03-11T08:22:33.839Z,46.83
2023-03-11T08:23:35.392Z,46.90
2023-03-11T08:24:36.915Z,46.26
2023-03-11T08:25:39.992Z,46.06
2023-03-11T08:26:41.992Z,44.93
2023-03-11T08:27:43.557Z,46.74
2023-03-11T08:28:45.134Z,46.88
2023-03-11T08:29:46.526Z,47.01
2023-03-11T08:30:48.063Z,46.38
2023-03-11T08:31:49.503Z,46.59
2023-03-11T08:32:51.056Z,44.91
2023-03-11T08:33:55.242Z,44.02
2023-03-11T08:34:57.432Z,45.55
2023-03-11T08:35:58.944Z,46.56
2023-03-11T08:37:01.231Z,50.73
2023-03-11T08:38:02.672Z,48.98
2023-03-11T08:39:04.319Z,48.04
2023-03-11T08:40:06.476Z,46.55
2023-03-11T08:41:07.968Z,45.96
2023-03-11T08:42:09.391Z,46.05
2023-03-11T08:43:14.739Z,44.44
2023-03-11T08:44:16.328Z,43.25
2023-03-11T08:45:17.960Z,43.78
2023-03-11T08:46:33.649Z,43.12
2023-03-11T08:47:36.482Z,43.41
2023-03-11T08:48:37.924Z,44.50
2023-03-11T08:49:39.420Z,43.37
2023-03-11T08:50:53.357Z,43.12
2023-03-11T08:51:55.030Z,43.12
2023-03-11T08:53:00.356Z,41.83
2023-03-11T08:54:02.421Z,41.97
2023-03-11T08:55:05.117Z,42.47
2023-03-11T08:56:06.840Z,42.79
2023-03-11T08:57:08.400Z,46.01
2023-03-11T08:58:09.811Z,45.41
2023-03-11T08:59:11.209Z,44.64
2023-03-11T09:00:13.323Z,47.17
2023-03-11T09:01:14.870Z,48.62
2023-03-11T09:02:16.535Z,47.13
2023-03-11T09:03:17.929Z,48.34
2023-03-11T09:04:19.362Z,46.16
2023-03-11T09:05:20.877Z,47.18
2023-03-11T09:06:22.387Z,46.95
2023-03-11T09:07:23.791Z,45.55
2023-03-11T09:08:25.651Z,44.59
2023-03-11T09:09:27.285Z,44.19
2023-03-11T09:10:28.837Z,45.71
2023-03-11T09:11:30.263Z,46.67
2023-03-11T09:12:31.719Z,48.81
2023-03-11T09:13:33.352Z,48.58
2023-03-11T09:14:35.422Z,45.89
2023-03-11T09:15:36.873Z,46.22
2023-03-11T09:16:38.395Z,45.75
2023-03-11T09:17:39.793Z,45.49
2023-03-11T09:18:41.197Z,44.65
2023-03-11T09:19:42.761Z,44.18
2023-03-11T09:20:45.066Z,44.09
2023-03-11T09:21:46.390Z,42.97
2023-03-11T09:22:48.216Z,42.11
2023-03-11T09:23:49.671Z,42.98
2023-03-11T09:24:51.047Z,41.75
2023-03-11T09:25:52.472Z,40.14
2023-03-11T09:26:53.952Z,41.06
2023-03-11T09:27:55.354Z,41.10
2023-03-11T09:28:56.839Z,41.63
2023-03-11T09:29:58.228Z,40.39
2023-03-11T09:31:01.356Z,39.72
2023-03-11T09:32:02.894Z,39.16
2023-03-11T09:33:04.470Z,41.71
2023-03-11T09:34:05.998Z,41.51
2023-03-11T09:35:07.705Z,45.07
2023-03-11T09:36:19.736Z,46.04
2023-03-11T09:37:21.162Z,46.64
2023-03-11T09:38:22.612Z,47.09
2023-03-11T09:39:24.128Z,45.53
2023-03-11T09:40:27.944Z,46.22
2023-03-11T09:41:58.327Z,46.16
2023-03-11T09:43:41.345Z,48.66
2023-03-11T09:44:49.256Z,49.28
2023-03-11T09:46:18.084Z,50.34
2023-03-11T09:47:53.326Z,51.48
2023-03-11T09:49:09.139Z,52.29
2023-03-11T09:50:22.253Z,54.22
2023-03-11T09:51:31.010Z,53.18
2023-03-11T09:52:44.090Z,54.59
2023-03-11T09:53:48.255Z,53.60
2023-03-11T09:54:53.823Z,55.28
2023-03-11T09:55:58.545Z,55.33
2023-03-11T09:57:02.724Z,54.65
2023-03-11T09:58:12.942Z,50.92
2023-03-11T09:59:21.612Z,50.94
2023-03-11T10:00:24.693Z,49.35
2023-03-11T10:01:33.164Z,49.04
2023-03-11T10:02:36.597Z,49.84
2023-03-11T10:03:39.874Z,49.48
2023-03-11T10:04:47.279Z,50.22
2023-03-11T10:05:49.296Z,48.71
2023-03-11T10:06:51.658Z,48.50
2023-03-11T10:08:18.218Z,48.15
2023-03-11T10:09:48.034Z,48.56
2023-03-11T10:11:01.470Z,49.22
2023-03-11T10:12:21.155Z,48.87
2023-03-11T10:13:32.825Z,47.74
2023-03-11T10:14:52.539Z,47.73
2023-03-11T10:16:12.666Z,47.82
2023-03-11T10:17:19.877Z,47.92
2023-03-11T10:18:24.028Z,49.50
2023-03-11T10:19:54.428Z,51.13
2023-03-11T10:21:26.832Z,52.12
2023-03-11T10:22:42.680Z,52.99
2023-03-11T10:23:49.726Z,52.02
2023-03-11T10:25:14.125Z,51.71
2023-03-11T10:26:23.062Z,48.60
2023-03-11T10:27:31.208Z,48.31
2023-03-11T10:28:37.072Z,46.98
2023-03-11T10:29:49.780Z,47.16
2023-03-11T10:31:20.415Z,46.58
2023-03-11T10:32:29.958Z,43.51
2023-03-11T10:33:39.323Z,39.66
2023-03-11T10:34:52.901Z,39.63
2023-03-11T10:35:57.836Z,38.98
2023-03-11T10:37:06.956Z,38.06
2023-03-11T10:38:19.788Z,39.20
2023-03-11T10:39:22.711Z,39.81
2023-03-11T10:40:27.101Z,42.04
2023-03-11T10:41:42.122Z,42.44
2023-03-11T10:42:46.214Z,41.21
2023-03-11T10:44:10.020Z,41.06
2023-03-11T10:45:14.142Z,40.22
2023-03-11T10:46:21.119Z,40.46
2023-03-11T10:47:25.501Z,40.48
2023-03-11T10:48:26.929Z,39.37
2023-03-11T10:49:28.547Z,37.38
2023-03-11T10:50:36.406Z,36.93
2023-03-11T10:51:38.747Z,36.94
2023-03-11T10:53:06.521Z,37.21
2023-03-11T10:54:08.018Z,35.66
2023-03-11T10:55:20.114Z,35.43
2023-03-11T10:56:32.199Z,34.52
2023-03-11T10:57:36.331Z,33.72
2023-03-11T10:58:48.572Z,34.75
2023-03-11T10:59:58.179Z,35.72
2023-03-11T11:01:21.661Z,36.72
2023-03-11T11:02:26.179Z,37.36
2023-03-11T11:03:28.273Z,36.36
2023-03-11T11:04:40.859Z,36.47
2023-03-11T11:05:42.230Z,34.84
2023-03-11T11:06:43.658Z,35.97
2023-03-11T11:07:46.754Z,34.60
2023-03-11T11:08:48.500Z,35.33
2023-03-11T11:10:13.530Z,32.64
2023-03-11T11:11:24.772Z,34.29
2023-03-11T11:12:26.138Z,34.38
2023-03-11T11:13:34.327Z,33.85
2023-03-11T11:14:51.245Z,33.75
2023-03-11T11:15:56.678Z,34.27
2023-03-11T11:16:58.258Z,33.71
2023-03-11T11:18:16.924Z,34.31
2023-03-11T11:19:22.387Z,35.61
2023-03-11T11:20:25.492Z,36.99
2023-03-11T11:21:33.174Z,39.23
2023-03-11T11:22:35.471Z,41.21
2023-03-11T11:23:40.027Z,39.80
2023-03-11T11:24:45.432Z,37.85
2023-03-11T11:25:58.594Z,38.12
2023-03-11T11:27:19.226Z,36.70
2023-03-11T11:28:20.920Z,38.53
2023-03-11T11:29:22.328Z,41.03
2023-03-11T11:30:24.834Z,39.96
2023-03-11T11:31:26.844Z,41.71
2023-03-11T11:32:29.130Z,40.39
2023-03-11T11:33:39.759Z,39.24
2023-03-11T11:34:41.404Z,39.27
2023-03-11T11:36:15.738Z,39.52
2023-03-11T11:37:17.117Z,37.49
2023-03-11T11:38:22.544Z,38.08
2023-03-11T11:39:26.956Z,38.30
2023-03-11T11:40:31.107Z,39.44
2023-03-11T11:41:36.627Z,39.97
2023-03-11T11:42:44.365Z,42.63
2023-03-11T11:44:02.833Z,40.97
2023-03-11T11:45:15.176Z,42.05
2023-03-11T11:46:37.101Z,43.11
2023-03-11T11:47:48.415Z,44.48
2023-03-11T11:49:08.432Z,43.91
2023-03-11T11:50:33.937Z,42.90
2023-03-11T11:51:40.284Z,42.69
2023-03-11T11:52:46.923Z,45.11
2023-03-11T11:54:17.501Z,44.42
2023-03-11T11:55:34.046Z,45.52
2023-03-11T11:56:35.486Z,43.94
2023-03-11T11:57:37.297Z,44.14
2023-03-11T11:58:40.968Z,45.86
2023-03-11T11:59:43.330Z,46.98
2023-03-11T12:00:57.546Z,46.08
2023-03-11T12:02:13.605Z,45.98
2023-03-11T12:03:53.338Z,47.21
2023-03-11T12:05:13.956Z,46.61
2023-03-11T12:06:54.528Z,44.72
2023-03-11T12:08:25.460Z,45.13
2023-03-11T12:09:37.805Z,46.06
2023-03-11T12:10:56.929Z,44.82
2023-03-11T12:12:17.284Z,42.23
2023-03-11T12:13:28.946Z,40.84
2023-03-11T12:14:30.820Z,40.42
2023-03-11T12:15:41.262Z,38.69
2023-03-11T12:16:57.098Z,38.78
2023-03-11T12:18:06.157Z,39.49
2023-03-11T12:19:10.730Z,38.32
2023-03-11T12:20:20.787Z,38.37
2023-03-11T12:21:42.138Z,39.00
2023-03-11T12:23:28.898Z,38.08
2023-03-11T12:25:09.124Z,38.02
2023-03-11T12:26:22.688Z,38.73
2023-03-11T12:27:29.714Z,38.42
2023-03-11T12:28:50.903Z,38.80
2023-03-11T12:29:57.830Z,37.82
2023-03-11T12:31:07.239Z,37.57
2023-03-11T12:32:20.080Z,37.81
2023-03-11T12:33:34.775Z,39.14
2023-03-11T12:34:36.300Z,38.57
2023-03-11T12:35:37.821Z,39.30
2023-03-11T12:36:41.950Z,38.04
2023-03-11T12:37:43.622Z,40.00
2023-03-11T12:38:49.094Z,41.64
2023-03-11T12:39:50.593Z,43.64
2023-03-11T12:41:16.035Z,44.32
2023-03-11T12:42:19.259Z,42.86
2023-03-11T12:43:35.765Z,42.84
2023-03-11T12:44:38.724Z,42.00
2023-03-11T12:45:52.298Z,40.04
2023-03-11T12:46:59.852Z,37.59
2023-03-11T12:48:29.365Z,39.59
2023-03-11T12:49:36.105Z,39.80
2023-03-11T12:50:41.355Z,40.68
2023-03-11T12:52:01.428Z,41.98
2023-03-11T12:53:03.913Z,40.91
2023-03-11T12:54:20.100Z,40.34
2023-03-11T12:55:29.873Z,40.49
2023-03-11T12:56:40.749Z,40.23
2023-03-11T12:57:58.464Z,40.69
2023-03-11T12:59:22.875Z,42.55
2023-03-11T13:00:24.420Z,42.98
2023-03-11T13:01:43.585Z,43.34
2023-03-11T13:03:03.011Z,41.85
2023-03-11T13:04:35.108Z,43.03
2023-03-11T13:05:50.503Z,44.75
2023-03-11T13:07:14.440Z,44.21
2023-03-11T13:08:19.647Z,42.95
2023-03-11T13:09:21.374Z,44.24
2023-03-11T13:10:28.587Z,44.19
2023-03-11T13:11:33.249Z,44.14
2023-03-11T13:12:40.987Z,43.63
2023-03-11T13:13:42.848Z,44.15
2023-03-11T13:14:44.423Z,43.99
2023-03-11T13:15:45.903Z,43.05
2023-03-11T13:16:48.123Z,41.96
2023-03-11T13:17:57.343Z,41.07
2023-03-11T13:19:27.933Z,42.05
2023-03-11T13:20:44.522Z,41.96
2023-03-11T13:21:46.059Z,40.33
2023-03-11T13:22:53.404Z,40.38
2023-03-11T13:24:20.001Z,38.73
2023-03-11T13:25:32.614Z,38.01
2023-03-11T13:26:44.078Z,37.01
2023-03-11T13:27:49.465Z,37.29
2023-03-11T13:29:09.164Z,37.89
2023-03-11T13:30:22.222Z,38.23
2023-03-11T13:31:54.585Z,39.83
2023-03-11T13:33:28.046Z,39.70
2023-03-11T13:34:57.127Z,39.09
2023-03-11T13:36:01.461Z,39.01
2023-03-11T13:37:51.441Z,37.23
2023-03-11T13:39:31.814Z,35.50
2023-03-11T13:40:38.396Z,38.92
2023-03-11T13:41:47.571Z,38.31
2023-03-11T13:42:51.486Z,40.47
2023-03-11T13:43:56.947Z,38.39
2023-03-11T13:44:59.567Z,37.19
2023-03-11T13:46:30.757Z,38.17
2023-03-11T13:47:36.576Z,38.61
2023-03-11T13:48:44.851Z,39.13
2023-03-11T13:49:54.597Z,39.55
2023-03-11T13:51:13.057Z,40.93
2023-03-11T13:52:18.722Z,39.27
2023-03-11T13:53:25.832Z,39.27
2023-03-11T13:54:36.669Z,38.23
2023-03-11T13:55:46.367Z,38.39
2023-03-11T13:57:02.109Z,38.93
2023-03-11T13:58:15.153Z,38.21
2023-03-11T13:59:17.861Z,38.10
2023-03-11T14:00:24.648Z,37.78
2023-03-11T14:01:26.222Z,36.49
2023-03-11T14:02:27.789Z,36.66
2023-03-11T14:03:40.875Z,37.14
2023-03-11T14:04:49.125Z,36.94
2023-03-11T14:05:57.985Z,36.70
2023-03-11T14:07:01.015Z,38.00
2023-03-11T14:08:20.642Z,38.91
2023-03-11T14:09:24.233Z,39.92
2023-03-11T14:10:30.695Z,37.73
2023-03-11T14:11:32.329Z,38.81
2023-03-11T14:12:33.744Z,38.85
2023-03-11T14:13:40.412Z,39.86
2023-03-11T14:14:44.632Z,38.99
2023-03-11T14:15:55.364Z,39.71
2023-03-11T14:16:57.789Z,39.87
2023-03-11T14:18:35.826Z,40.12
2023-03-11T14:19:37.197Z,39.51
2023-03-11T14:20:38.652Z,40.63
2023-03-11T14:21:44.639Z,40.13
2023-03-11T14:22:49.410Z,40.37
2023-03-11T14:23:53.606Z,40.45
2023-03-11T14:24:55.038Z,41.53
2023-03-11T14:26:06.479Z,40.88
2023-03-11T14:27:09.710Z,41.43
2023-03-11T14:28:20.262Z,40.08
2023-03-11T14:29:37.552Z,40.25
2023-03-11T14:30:38.965Z,40.42
2023-03-11T14:31:43.846Z,39.50
2023-03-11T14:32:56.764Z,40.29
2023-03-11T14:34:04.496Z,40.86
2023-03-11T14:35:21.495Z,41.54
2023-03-11T14:36:23.108Z,41.07
2023-03-11T14:37:38.574Z,40.61
2023-03-11T14:38:44.112Z,41.78
2023-03-11T14:39:47.647Z,41.29
2023-03-11T14:40:55.306Z,41.11
2023-03-11T14:42:13.673Z,40.77
2023-03-11T14:43:15.106Z,39.97
2023-03-11T14:44:17.024Z,40.40
2023-03-11T14:45:21.312Z,40.71
2023-03-11T14:46:28.783Z,40.01
2023-03-11T14:47:39.430Z,39.95
2023-03-11T14:48:44.054Z,39.12
2023-03-11T14:49:48.982Z,39.37
2023-03-11T14:50:51.565Z,39.70
2023-03-11T14:52:01.251Z,40.63
2023-03-11T14:53:14.190Z,40.23
2023-03-11T14:54:19.579Z,40.50
2023-03-11T14:55:36.216Z,41.60
2023-03-11T14:56:43.176Z,41.71
2023-03-11T14:58:19.021Z,41.84
2023-03-11T14:59:26.875Z,41.22
2023-03-11T15:00:39.490Z,41.30
2023-03-11T15:01:43.302Z,42.85
2023-03-11T15:03:12.703Z,42.33
2023-03-11T15:04:31.394Z,42.61
2023-03-11T15:05:47.957Z,43.28
2023-03-11T15:06:50.463Z,42.86
2023-03-11T15:07:59.216Z,43.76
2023-03-11T15:09:10.866Z,42.53
2023-03-11T15:10:13.271Z,42.52
2023-03-11T15:11:15.375Z,44.06
2023-03-11T15:12:34.688Z,43.77
2023-03-11T15:13:38.118Z,43.86
2023-03-11T15:14:50.619Z,43.57
2023-03-11T15:16:07.487Z,43.69
2023-03-11T15:17:35.260Z,44.05
2023-03-11T15:18:42.691Z,43.84
2023-03-11T15:19:44.229Z,43.67
2023-03-11T15:20:45.789Z,44.32
2023-03-11T15:21:49.600Z,44.62
2023-03-11T15:23:01.377Z,44.69
2023-03-11T15:24:06.620Z,43.66
2023-03-11T15:25:17.750Z,44.32
2023-03-11T15:26:29.419Z,44.32
2023-03-11T15:27:38.931Z,45.27
2023-03-11T15:28:40.594Z,46.03
2023-03-11T15:29:51.384Z,45.60
2023-03-11T15:31:14.961Z,45.75
2023-03-11T15:32:37.436Z,46.41
2023-03-11T15:33:39.981Z,47.30
2023-03-11T15:34:41.976Z,46.52
2023-03-11T15:35:48.743Z,45.62
2023-03-11T15:36:50.104Z,46.94
2023-03-11T15:38:12.377Z,46.88
2023-03-11T15:39:46.989Z,47.25
2023-03-11T15:40:57.845Z,48.15
2023-03-11T15:42:03.956Z,48.61
2023-03-11T15:43:23.761Z,49.14
2023-03-11T15:44:29.966Z,48.49
2023-03-11T15:45:31.445Z,49.80
2023-03-11T15:46:34.290Z,48.94
2023-03-11T15:47:36.098Z,49.28
2023-03-11T15:48:37.474Z,49.52
2023-03-11T15:49:39.086Z,50.63
2023-03-11T15:50:53.754Z,49.64
2023-03-11T16:11:45.889Z,50.65
